sensor_id;sensor_type;location;lat;lon;timestamp;temperature;humidity
49465;DHT22;35358;49.342;8.802;2022-09-02T00:00:55;15.90;99.90
49465;DHT22;35358;49.342;8.802;2022-09-02T00:03:28;15.90;99.90
49465;DHT22;35358;49.342;8.802;2022-09-02T00:05:54;15.90;99.90
49465;DHT22;35358;49.342;8.802;2022-09-02T00:08:19;16.00;99.90
49465;DHT22;35358;49.342;8.802;2022-09-02T00:10:45;16.10;99.90
49465;DHT22;35358;49.342;8.802;2022-09-02T00:13:16;16.20;99.90
49465;DHT22;35358;49.342;8.802;2022-09-02T00:15:44;16.20;99.90
49465;DHT22;35358;49.342;8.802;2022-09-02T00:18:13;15.90;99.90
49465;DHT22;35358;49.342;8.802;2022-09-02T00:20:41;15.80;99.90
49465;DHT22;35358;49.342;8.802;2022-09-02T00:23:08;15.70;99.90
49465;DHT22;35358;49.342;8.802;2022-09-02T00:25:37;15.70;99.90
49465;DHT22;35358;49.342;8.802;2022-09-02T00:28:03;15.60;99.90
49465;DHT22;35358;49.342;8.802;2022-09-02T00:30:32;15.50;99.90
49465;DHT22;35358;49.342;8.802;2022-09-02T00:32:58;15.40;99.90
49465;DHT22;35358;49.342;8.802;2022-09-02T00:35:24;15.30;99.90
49465;DHT22;35358;49.342;8.802;2022-09-02T00:37:50;15.40;99.90
49465;DHT22;35358;49.342;8.802;2022-09-02T00:40:18;15.40;99.90
49465;DHT22;35358;49.342;8.802;2022-09-02T00:42:44;15.40;99.90
49465;DHT22;35358;49.342;8.802;2022-09-02T00:45:10;15.40;99.90
49465;DHT22;35358;49.342;8.802;2022-09-02T00:47:36;15.30;99.90
49465;DHT22;35358;49.342;8.802;2022-09-02T00:50:09;15.30;99.90
49465;DHT22;35358;49.342;8.802;2022-09-02T00:52:49;15.30;99.90
49465;DHT22;35358;49.342;8.802;2022-09-02T00:55:19;15.30;99.90
49465;DHT22;35358;49.342;8.802;2022-09-02T00:57:52;15.30;99.90
49465;DHT22;35358;49.342;8.802;2022-09-02T01:00:26;15.40;99.90
49465;DHT22;35358;49.342;8.802;2022-09-02T01:02:57;15.40;99.90
49465;DHT22;35358;49.342;8.802;2022-09-02T01:05:25;15.40;99.90
49465;DHT22;35358;49.342;8.802;2022-09-02T01:07:53;15.50;99.90
49465;DHT22;35358;49.342;8.802;2022-09-02T01:10:23;15.70;99.90
49465;DHT22;35358;49.342;8.802;2022-09-02T01:12:57;15.90;99.90
49465;DHT22;35358;49.342;8.802;2022-09-02T01:15:24;16.00;99.90
49465;DHT22;35358;49.342;8.802;2022-09-02T01:17:54;16.10;99.90
49465;DHT22;35358;49.342;8.802;2022-09-02T01:20:24;16.10;99.90
49465;DHT22;35358;49.342;8.802;2022-09-02T01:22:49;16.10;99.90
49465;DHT22;35358;49.342;8.802;2022-09-02T01:25:24;16.10;99.90
49465;DHT22;35358;49.342;8.802;2022-09-02T01:27:51;16.10;99.90
49465;DHT22;35358;49.342;8.802;2022-09-02T01:30:24;16.10;99.90
49465;DHT22;35358;49.342;8.802;2022-09-02T01:32:50;16.20;99.90
49465;DHT22;35358;49.342;8.802;2022-09-02T01:35:17;16.10;99.90
49465;DHT22;35358;49.342;8.802;2022-09-02T01:37:43;16.10;99.90
49465;DHT22;35358;49.342;8.802;2022-09-02T01:40:12;16.10;99.90
49465;DHT22;35358;49.342;8.802;2022-09-02T01:42:39;16.10;99.90
49465;DHT22;35358;49.342;8.802;2022-09-02T01:45:05;16.10;99.90
49465;DHT22;35358;49.342;8.802;2022-09-02T01:47:31;16.20;99.90
49465;DHT22;35358;49.342;8.802;2022-09-02T01:49:57;16.20;99.90
49465;DHT22;35358;49.342;8.802;2022-09-02T01:52:28;16.20;99.90
49465;DHT22;35358;49.342;8.802;2022-09-02T01:54:54;16.10;99.90
49465;DHT22;35358;49.342;8.802;2022-09-02T01:57:22;16.10;99.90
49465;DHT22;35358;49.342;8.802;2022-09-02T01:59:53;16.10;99.90
49465;DHT22;35358;49.342;8.802;2022-09-02T02:02:20;16.10;99.90
49465;DHT22;35358;49.342;8.802;2022-09-02T02:04:46;16.10;99.90
49465;DHT22;35358;49.342;8.802;2022-09-02T02:07:17;16.10;99.90
49465;DHT22;35358;49.342;8.802;2022-09-02T02:09:47;16.10;99.90
49465;DHT22;35358;49.342;8.802;2022-09-02T02:12:14;16.00;99.90
49465;DHT22;35358;49.342;8.802;2022-09-02T02:14:42;16.00;99.90
49465;DHT22;35358;49.342;8.802;2022-09-02T02:17:08;16.10;99.90
49465;DHT22;35358;49.342;8.802;2022-09-02T02:19:34;16.00;99.90
49465;DHT22;35358;49.342;8.802;2022-09-02T02:22:00;16.00;99.90
49465;DHT22;35358;49.342;8.802;2022-09-02T02:24:28;16.00;99.90
49465;DHT22;35358;49.342;8.802;2022-09-02T02:26:54;15.90;99.90
49465;DHT22;35358;49.342;8.802;2022-09-02T02:29:20;15.80;99.90
49465;DHT22;35358;49.342;8.802;2022-09-02T02:31:46;15.70;99.90
49465;DHT22;35358;49.342;8.802;2022-09-02T02:34:14;15.50;99.90
49465;DHT22;35358;49.342;8.802;2022-09-02T02:36:44;15.40;99.90
49465;DHT22;35358;49.342;8.802;2022-09-02T02:39:11;15.30;99.90
49465;DHT22;35358;49.342;8.802;2022-09-02T02:41:40;15.20;99.90
49465;DHT22;35358;49.342;8.802;2022-09-02T02:44:06;15.20;99.90
49465;DHT22;35358;49.342;8.802;2022-09-02T02:46:35;15.30;99.90
49465;DHT22;35358;49.342;8.802;2022-09-02T02:49:04;15.20;99.90
49465;DHT22;35358;49.342;8.802;2022-09-02T02:51:36;15.10;99.90
49465;DHT22;35358;49.342;8.802;2022-09-02T02:54:03;15.10;99.90
49465;DHT22;35358;49.342;8.802;2022-09-02T02:56:29;15.10;99.90
49465;DHT22;35358;49.342;8.802;2022-09-02T02:58:58;15.00;99.90
49465;DHT22;35358;49.342;8.802;2022-09-02T03:01:30;15.00;99.90
49465;DHT22;35358;49.342;8.802;2022-09-02T03:03:56;14.90;99.90
49465;DHT22;35358;49.342;8.802;2022-09-02T03:06:23;14.90;99.90
49465;DHT22;35358;49.342;8.802;2022-09-02T03:08:51;14.80;99.90
49465;DHT22;35358;49.342;8.802;2022-09-02T03:11:18;14.80;99.90
49465;DHT22;35358;49.342;8.802;2022-09-02T03:13:46;14.80;99.90
49465;DHT22;35358;49.342;8.802;2022-09-02T03:16:14;14.90;99.90
49465;DHT22;35358;49.342;8.802;2022-09-02T03:18:44;14.80;99.90
49465;DHT22;35358;49.342;8.802;2022-09-02T03:21:10;14.70;99.90
49465;DHT22;35358;49.342;8.802;2022-09-02T03:23:38;14.70;99.90
49465;DHT22;35358;49.342;8.802;2022-09-02T03:26:15;14.80;99.90
49465;DHT22;35358;49.342;8.802;2022-09-02T03:28:41;14.70;99.90
49465;DHT22;35358;49.342;8.802;2022-09-02T03:31:19;14.70;99.90
49465;DHT22;35358;49.342;8.802;2022-09-02T03:33:48;14.70;99.90
49465;DHT22;35358;49.342;8.802;2022-09-02T03:36:29;14.70;99.90
49465;DHT22;35358;49.342;8.802;2022-09-02T03:38:58;14.60;99.90
49465;DHT22;35358;49.342;8.802;2022-09-02T03:41:26;14.70;99.90
49465;DHT22;35358;49.342;8.802;2022-09-02T03:43:54;14.70;99.90
49465;DHT22;35358;49.342;8.802;2022-09-02T03:46:23;14.70;99.90
49465;DHT22;35358;49.342;8.802;2022-09-02T03:48:51;14.70;99.90
49465;DHT22;35358;49.342;8.802;2022-09-02T03:51:20;14.70;99.90
49465;DHT22;35358;49.342;8.802;2022-09-02T03:53:48;14.70;99.90
49465;DHT22;35358;49.342;8.802;2022-09-02T03:56:15;14.70;99.90
49465;DHT22;35358;49.342;8.802;2022-09-02T03:58:44;14.70;99.90
49465;DHT22;35358;49.342;8.802;2022-09-02T04:01:16;14.80;99.90
49465;DHT22;35358;49.342;8.802;2022-09-02T04:03:42;14.80;99.90
49465;DHT22;35358;49.342;8.802;2022-09-02T04:06:10;14.80;99.90
49465;DHT22;35358;49.342;8.802;2022-09-02T04:08:39;14.80;99.90
49465;DHT22;35358;49.342;8.802;2022-09-02T04:11:11;14.80;99.90
49465;DHT22;35358;49.342;8.802;2022-09-02T04:13:39;14.80;99.90
49465;DHT22;35358;49.342;8.802;2022-09-02T04:16:10;14.80;99.90
49465;DHT22;35358;49.342;8.802;2022-09-02T04:22:16;14.80;99.90
49465;DHT22;35358;49.342;8.802;2022-09-02T04:24:44;14.80;99.90
49465;DHT22;35358;49.342;8.802;2022-09-02T04:27:10;14.80;99.90
49465;DHT22;35358;49.342;8.802;2022-09-02T04:29:38;14.80;99.90
49465;DHT22;35358;49.342;8.802;2022-09-02T04:32:03;14.60;99.90
49465;DHT22;35358;49.342;8.802;2022-09-02T04:34:31;14.50;99.90
49465;DHT22;35358;49.342;8.802;2022-09-02T04:36:57;14.40;99.90
49465;DHT22;35358;49.342;8.802;2022-09-02T04:39:22;14.10;99.90
49465;DHT22;35358;49.342;8.802;2022-09-02T04:41:48;14.10;99.90
49465;DHT22;35358;49.342;8.802;2022-09-02T04:44:15;14.10;99.90
49465;DHT22;35358;49.342;8.802;2022-09-02T04:46:40;14.10;99.90
49465;DHT22;35358;49.342;8.802;2022-09-02T04:49:06;14.10;99.90
49465;DHT22;35358;49.342;8.802;2022-09-02T04:51:34;14.00;99.90
49465;DHT22;35358;49.342;8.802;2022-09-02T04:54:00;14.10;99.90
49465;DHT22;35358;49.342;8.802;2022-09-02T04:56:28;14.00;99.90
49465;DHT22;35358;49.342;8.802;2022-09-02T04:58:54;14.00;99.90
49465;DHT22;35358;49.342;8.802;2022-09-02T05:01:25;14.00;99.90
49465;DHT22;35358;49.342;8.802;2022-09-02T05:03:51;14.00;99.90
49465;DHT22;35358;49.342;8.802;2022-09-02T05:06:21;13.90;99.90
49465;DHT22;35358;49.342;8.802;2022-09-02T05:08:47;13.90;99.90
49465;DHT22;35358;49.342;8.802;2022-09-02T05:11:18;13.90;99.90
49465;DHT22;35358;49.342;8.802;2022-09-02T05:13:47;13.90;99.90
49465;DHT22;35358;49.342;8.802;2022-09-02T05:16:32;13.90;99.90
49465;DHT22;35358;49.342;8.802;2022-09-02T05:19:00;13.90;99.90
49465;DHT22;35358;49.342;8.802;2022-09-02T05:21:27;13.80;99.90
49465;DHT22;35358;49.342;8.802;2022-09-02T05:23:57;13.80;99.90
49465;DHT22;35358;49.342;8.802;2022-09-02T05:26:23;13.90;99.90
49465;DHT22;35358;49.342;8.802;2022-09-02T05:28:49;13.90;99.90
49465;DHT22;35358;49.342;8.802;2022-09-02T05:31:19;13.90;99.90
49465;DHT22;35358;49.342;8.802;2022-09-02T05:33:47;14.00;99.90
49465;DHT22;35358;49.342;8.802;2022-09-02T05:36:18;14.00;99.90
49465;DHT22;35358;49.342;8.802;2022-09-02T05:38:47;14.00;99.90
49465;DHT22;35358;49.342;8.802;2022-09-02T05:41:21;14.00;99.90
49465;DHT22;35358;49.342;8.802;2022-09-02T05:43:59;14.00;99.90
49465;DHT22;35358;49.342;8.802;2022-09-02T05:46:26;14.10;99.90
49465;DHT22;35358;49.342;8.802;2022-09-02T05:48:55;14.10;99.90
49465;DHT22;35358;49.342;8.802;2022-09-02T05:54:13;14.10;99.90
49465;DHT22;35358;49.342;8.802;2022-09-02T05:56:42;14.10;99.90
49465;DHT22;35358;49.342;8.802;2022-09-02T05:59:11;14.20;99.90
49465;DHT22;35358;49.342;8.802;2022-09-02T06:01:36;14.20;99.90
49465;DHT22;35358;49.342;8.802;2022-09-02T06:04:03;14.30;99.90
49465;DHT22;35358;49.342;8.802;2022-09-02T06:06:29;14.30;99.90
49465;DHT22;35358;49.342;8.802;2022-09-02T06:08:58;14.40;99.90
49465;DHT22;35358;49.342;8.802;2022-09-02T06:11:31;14.50;99.90
49465;DHT22;35358;49.342;8.802;2022-09-02T06:13:56;14.80;99.90
49465;DHT22;35358;49.342;8.802;2022-09-02T06:16:22;15.10;99.90
49465;DHT22;35358;49.342;8.802;2022-09-02T06:18:50;15.40;99.90
49465;DHT22;35358;49.342;8.802;2022-09-02T06:21:17;15.50;99.90
49465;DHT22;35358;49.342;8.802;2022-09-02T06:23:45;15.70;99.90
49465;DHT22;35358;49.342;8.802;2022-09-02T06:26:12;15.80;99.90
49465;DHT22;35358;49.342;8.802;2022-09-02T06:28:38;15.90;99.90
49465;DHT22;35358;49.342;8.802;2022-09-02T06:31:12;16.10;99.90
49465;DHT22;35358;49.342;8.802;2022-09-02T06:33:40;16.10;99.90
49465;DHT22;35358;49.342;8.802;2022-09-02T06:36:08;16.20;99.90
49465;DHT22;35358;49.342;8.802;2022-09-02T06:38:41;16.30;99.90
49465;DHT22;35358;49.342;8.802;2022-09-02T06:41:12;16.30;99.90
49465;DHT22;35358;49.342;8.802;2022-09-02T06:43:42;16.40;99.90
49465;DHT22;35358;49.342;8.802;2022-09-02T06:46:17;16.50;99.90
49465;DHT22;35358;49.342;8.802;2022-09-02T06:48:46;16.60;99.90
49465;DHT22;35358;49.342;8.802;2022-09-02T06:51:23;16.60;99.90
49465;DHT22;35358;49.342;8.802;2022-09-02T06:53:49;16.70;99.90
49465;DHT22;35358;49.342;8.802;2022-09-02T06:56:15;16.70;99.90
49465;DHT22;35358;49.342;8.802;2022-09-02T06:58:41;16.80;99.90
49465;DHT22;35358;49.342;8.802;2022-09-02T07:01:06;16.90;99.90
49465;DHT22;35358;49.342;8.802;2022-09-02T07:03:34;17.00;99.90
49465;DHT22;35358;49.342;8.802;2022-09-02T07:06:18;17.00;99.90
49465;DHT22;35358;49.342;8.802;2022-09-02T07:08:49;17.10;99.90
49465;DHT22;35358;49.342;8.802;2022-09-02T07:11:23;17.20;99.90
49465;DHT22;35358;49.342;8.802;2022-09-02T07:13:52;17.20;99.90
49465;DHT22;35358;49.342;8.802;2022-09-02T07:16:18;17.20;99.90
49465;DHT22;35358;49.342;8.802;2022-09-02T07:18:43;17.30;99.90
49465;DHT22;35358;49.342;8.802;2022-09-02T07:21:12;17.40;99.90
49465;DHT22;35358;49.342;8.802;2022-09-02T07:23:38;17.50;99.90
49465;DHT22;35358;49.342;8.802;2022-09-02T07:26:11;17.50;99.90
49465;DHT22;35358;49.342;8.802;2022-09-02T07:28:39;17.50;99.90
49465;DHT22;35358;49.342;8.802;2022-09-02T07:31:09;17.50;99.90
49465;DHT22;35358;49.342;8.802;2022-09-02T07:33:37;17.60;99.90
49465;DHT22;35358;49.342;8.802;2022-09-02T07:36:07;17.70;99.90
49465;DHT22;35358;49.342;8.802;2022-09-02T07:38:35;17.70;99.90
49465;DHT22;35358;49.342;8.802;2022-09-02T07:41:01;17.70;99.90
49465;DHT22;35358;49.342;8.802;2022-09-02T07:43:32;17.80;99.90
49465;DHT22;35358;49.342;8.802;2022-09-02T07:45:59;17.90;99.90
49465;DHT22;35358;49.342;8.802;2022-09-02T07:48:26;17.90;99.90
49465;DHT22;35358;49.342;8.802;2022-09-02T07:50:55;18.00;99.90
49465;DHT22;35358;49.342;8.802;2022-09-02T07:53:28;18.10;99.90
49465;DHT22;35358;49.342;8.802;2022-09-02T07:55:53;18.20;99.90
49465;DHT22;35358;49.342;8.802;2022-09-02T07:58:22;18.30;99.90
49465;DHT22;35358;49.342;8.802;2022-09-02T08:00:49;18.20;99.90
49465;DHT22;35358;49.342;8.802;2022-09-02T08:03:15;18.30;99.90
49465;DHT22;35358;49.342;8.802;2022-09-02T08:05:42;18.40;99.90
49465;DHT22;35358;49.342;8.802;2022-09-02T08:08:12;18.50;99.90
49465;DHT22;35358;49.342;8.802;2022-09-02T08:10:38;18.50;99.90
49465;DHT22;35358;49.342;8.802;2022-09-02T08:13:11;18.50;99.90
49465;DHT22;35358;49.342;8.802;2022-09-02T08:15:37;18.50;99.90
49465;DHT22;35358;49.342;8.802;2022-09-02T08:18:06;18.60;99.90
49465;DHT22;35358;49.342;8.802;2022-09-02T08:20:32;18.80;99.90
49465;DHT22;35358;49.342;8.802;2022-09-02T08:22:57;18.90;99.90
49465;DHT22;35358;49.342;8.802;2022-09-02T08:25:24;18.90;99.90
49465;DHT22;35358;49.342;8.802;2022-09-02T08:27:50;19.00;99.90
49465;DHT22;35358;49.342;8.802;2022-09-02T08:30:17;19.10;99.90
49465;DHT22;35358;49.342;8.802;2022-09-02T08:32:43;19.10;99.90
49465;DHT22;35358;49.342;8.802;2022-09-02T08:35:13;19.10;99.90
49465;DHT22;35358;49.342;8.802;2022-09-02T08:37:44;19.30;99.90
49465;DHT22;35358;49.342;8.802;2022-09-02T08:40:16;19.30;99.90
49465;DHT22;35358;49.342;8.802;2022-09-02T08:42:46;19.40;99.90
49465;DHT22;35358;49.342;8.802;2022-09-02T08:47:46;19.70;99.90
49465;DHT22;35358;49.342;8.802;2022-09-02T08:50:18;19.60;99.90
49465;DHT22;35358;49.342;8.802;2022-09-02T08:53:07;19.80;99.90
49465;DHT22;35358;49.342;8.802;2022-09-02T08:55:55;19.90;99.90
49465;DHT22;35358;49.342;8.802;2022-09-02T08:58:26;19.90;99.90
49465;DHT22;35358;49.342;8.802;2022-09-02T09:04:19;19.90;99.90
49465;DHT22;35358;49.342;8.802;2022-09-02T09:12:53;20.40;99.90
49465;DHT22;35358;49.342;8.802;2022-09-02T09:18:01;20.80;99.90
49465;DHT22;35358;49.342;8.802;2022-09-02T09:20:32;20.90;99.90
49465;DHT22;35358;49.342;8.802;2022-09-02T09:23:14;20.90;99.90
49465;DHT22;35358;49.342;8.802;2022-09-02T09:25:44;20.90;99.90
49465;DHT22;35358;49.342;8.802;2022-09-02T09:28:14;20.90;99.90
49465;DHT22;35358;49.342;8.802;2022-09-02T09:30:42;20.90;99.90
49465;DHT22;35358;49.342;8.802;2022-09-02T09:33:11;20.90;99.90
49465;DHT22;35358;49.342;8.802;2022-09-02T09:35:57;21.00;99.90
49465;DHT22;35358;49.342;8.802;2022-09-02T09:38:29;21.10;99.90
49465;DHT22;35358;49.342;8.802;2022-09-02T09:43:38;21.40;99.90
49465;DHT22;35358;49.342;8.802;2022-09-02T09:48:53;21.60;99.90
49465;DHT22;35358;49.342;8.802;2022-09-02T09:51:19;21.50;99.90
49465;DHT22;35358;49.342;8.802;2022-09-02T09:53:47;21.60;99.90
49465;DHT22;35358;49.342;8.802;2022-09-02T09:58:47;21.50;99.90
49465;DHT22;35358;49.342;8.802;2022-09-02T10:01:23;21.60;99.90
49465;DHT22;35358;49.342;8.802;2022-09-02T10:14:31;22.30;99.90
49465;DHT22;35358;49.342;8.802;2022-09-02T10:23:10;21.90;99.90
49465;DHT22;35358;49.342;8.802;2022-09-02T10:26:19;22.20;99.90
49465;DHT22;35358;49.342;8.802;2022-09-02T10:37:18;22.50;99.90
49465;DHT22;35358;49.342;8.802;2022-09-02T10:42:50;22.80;99.90
49465;DHT22;35358;49.342;8.802;2022-09-02T10:45:23;22.40;99.90
49465;DHT22;35358;49.342;8.802;2022-09-02T10:50:51;22.50;99.90
49465;DHT22;35358;49.342;8.802;2022-09-02T10:56:04;22.80;99.90
49465;DHT22;35358;49.342;8.802;2022-09-02T11:01:25;22.50;99.90
49465;DHT22;35358;49.342;8.802;2022-09-02T11:04:08;22.60;99.90
49465;DHT22;35358;49.342;8.802;2022-09-02T11:06:40;22.90;99.90
49465;DHT22;35358;49.342;8.802;2022-09-02T11:09:13;23.10;99.90
49465;DHT22;35358;49.342;8.802;2022-09-02T11:11:50;23.10;99.90
49465;DHT22;35358;49.342;8.802;2022-09-02T11:14:23;23.00;99.90
49465;DHT22;35358;49.342;8.802;2022-09-02T11:19:40;23.00;99.90
49465;DHT22;35358;49.342;8.802;2022-09-02T11:25:20;22.90;99.90
49465;DHT22;35358;49.342;8.802;2022-09-02T11:33:17;23.40;99.90
49465;DHT22;35358;49.342;8.802;2022-09-02T11:35:43;23.40;99.90
49465;DHT22;35358;49.342;8.802;2022-09-02T11:52:48;23.70;99.90
49465;DHT22;35358;49.342;8.802;2022-09-02T11:55:34;23.70;99.90
49465;DHT22;35358;49.342;8.802;2022-09-02T11:58:08;24.10;99.90
49465;DHT22;35358;49.342;8.802;2022-09-02T12:00:35;24.10;99.90
49465;DHT22;35358;49.342;8.802;2022-09-02T12:03:23;24.00;99.90
49465;DHT22;35358;49.342;8.802;2022-09-02T12:08:55;24.20;99.90
49465;DHT22;35358;49.342;8.802;2022-09-02T12:11:35;24.40;99.90
49465;DHT22;35358;49.342;8.802;2022-09-02T12:14:04;24.40;99.90
49465;DHT22;35358;49.342;8.802;2022-09-02T12:16:42;24.30;99.90
49465;DHT22;35358;49.342;8.802;2022-09-02T12:21:35;24.00;99.90
49465;DHT22;35358;49.342;8.802;2022-09-02T12:24:07;24.30;99.90
49465;DHT22;35358;49.342;8.802;2022-09-02T12:31:47;24.60;99.90
49465;DHT22;35358;49.342;8.802;2022-09-02T12:36:56;24.40;99.90
49465;DHT22;35358;49.342;8.802;2022-09-02T12:44:51;24.80;99.90
49465;DHT22;35358;49.342;8.802;2022-09-02T12:49:49;24.80;99.90
49465;DHT22;35358;49.342;8.802;2022-09-02T12:55:30;25.10;99.90
49465;DHT22;35358;49.342;8.802;2022-09-02T12:58:07;25.40;99.90
49465;DHT22;35358;49.342;8.802;2022-09-02T13:05:53;26.00;99.90
49465;DHT22;35358;49.342;8.802;2022-09-02T13:22:37;25.80;99.90
49465;DHT22;35358;49.342;8.802;2022-09-02T13:31:27;26.20;99.90
49465;DHT22;35358;49.342;8.802;2022-09-02T13:33:57;26.10;99.90
49465;DHT22;35358;49.342;8.802;2022-09-02T13:36:34;26.50;99.90
49465;DHT22;35358;49.342;8.802;2022-09-02T13:39:16;26.70;99.90
49465;DHT22;35358;49.342;8.802;2022-09-02T13:41:45;26.10;99.90
49465;DHT22;35358;49.342;8.802;2022-09-02T13:44:20;26.20;99.90
49465;DHT22;35358;49.342;8.802;2022-09-02T13:46:53;26.50;99.90
49465;DHT22;35358;49.342;8.802;2022-09-02T13:49:26;26.90;99.90
49465;DHT22;35358;49.342;8.802;2022-09-02T13:51:54;27.10;99.90
49465;DHT22;35358;49.342;8.802;2022-09-02T13:54:36;26.90;99.90
49465;DHT22;35358;49.342;8.802;2022-09-02T13:57:09;27.00;99.90
49465;DHT22;35358;49.342;8.802;2022-09-02T13:59:39;27.50;99.90
49465;DHT22;35358;49.342;8.802;2022-09-02T14:04:52;27.30;99.90
49465;DHT22;35358;49.342;8.802;2022-09-02T14:10:00;27.70;99.90
49465;DHT22;35358;49.342;8.802;2022-09-02T14:12:30;27.70;99.90
49465;DHT22;35358;49.342;8.802;2022-09-02T14:14:57;27.70;99.90
49465;DHT22;35358;49.342;8.802;2022-09-02T14:17:25;27.90;99.90
49465;DHT22;35358;49.342;8.802;2022-09-02T14:22:36;27.60;99.90
49465;DHT22;35358;49.342;8.802;2022-09-02T14:25:17;27.60;99.90
49465;DHT22;35358;49.342;8.802;2022-09-02T14:27:55;27.10;99.90
49465;DHT22;35358;49.342;8.802;2022-09-02T14:43:47;27.90;99.90
49465;DHT22;35358;49.342;8.802;2022-09-02T14:51:30;27.90;99.90
49465;DHT22;35358;49.342;8.802;2022-09-02T14:53:59;28.00;99.90
49465;DHT22;35358;49.342;8.802;2022-09-02T14:56:45;27.80;99.90
49465;DHT22;35358;49.342;8.802;2022-09-02T14:59:11;28.20;99.90
49465;DHT22;35358;49.342;8.802;2022-09-02T15:01:42;28.40;99.90
49465;DHT22;35358;49.342;8.802;2022-09-02T15:04:11;28.30;99.90
49465;DHT22;35358;49.342;8.802;2022-09-02T15:06:42;28.60;99.90
49465;DHT22;35358;49.342;8.802;2022-09-02T15:09:08;28.30;99.90
49465;DHT22;35358;49.342;8.802;2022-09-02T15:11:35;28.60;99.90
49465;DHT22;35358;49.342;8.802;2022-09-02T15:14:05;28.40;99.90
49465;DHT22;35358;49.342;8.802;2022-09-02T15:16:31;27.60;99.90
49465;DHT22;35358;49.342;8.802;2022-09-02T15:18:56;27.70;99.90
49465;DHT22;35358;49.342;8.802;2022-09-02T15:21:22;27.90;99.90
49465;DHT22;35358;49.342;8.802;2022-09-02T15:23:50;27.60;99.90
49465;DHT22;35358;49.342;8.802;2022-09-02T15:26:18;28.10;99.90
49465;DHT22;35358;49.342;8.802;2022-09-02T15:28:46;28.00;99.90
49465;DHT22;35358;49.342;8.802;2022-09-02T15:31:11;28.20;99.90
49465;DHT22;35358;49.342;8.802;2022-09-02T15:33:40;27.50;99.90
49465;DHT22;35358;49.342;8.802;2022-09-02T15:36:08;27.20;99.90
49465;DHT22;35358;49.342;8.802;2022-09-02T15:38:37;27.30;99.90
49465;DHT22;35358;49.342;8.802;2022-09-02T15:41:22;27.30;99.90
49465;DHT22;35358;49.342;8.802;2022-09-02T15:43:49;28.10;99.90
49465;DHT22;35358;49.342;8.802;2022-09-02T15:46:19;28.70;99.90
49465;DHT22;35358;49.342;8.802;2022-09-02T15:48:45;28.60;99.90
49465;DHT22;35358;49.342;8.802;2022-09-02T15:51:15;28.60;99.90
49465;DHT22;35358;49.342;8.802;2022-09-02T15:53:41;28.20;99.90
49465;DHT22;35358;49.342;8.802;2022-09-02T15:56:20;27.80;99.90
49465;DHT22;35358;49.342;8.802;2022-09-02T15:59:14;27.70;99.90
49465;DHT22;35358;49.342;8.802;2022-09-02T16:01:42;28.30;99.90
49465;DHT22;35358;49.342;8.802;2022-09-02T16:04:11;28.20;99.90
49465;DHT22;35358;49.342;8.802;2022-09-02T16:06:38;28.10;99.90
49465;DHT22;35358;49.342;8.802;2022-09-02T16:09:09;27.90;99.90
49465;DHT22;35358;49.342;8.802;2022-09-02T16:11:38;27.40;99.90
49465;DHT22;35358;49.342;8.802;2022-09-02T16:14:07;26.90;99.90
49465;DHT22;35358;49.342;8.802;2022-09-02T16:16:33;27.60;99.90
49465;DHT22;35358;49.342;8.802;2022-09-02T16:19:03;27.40;99.90
49465;DHT22;35358;49.342;8.802;2022-09-02T16:21:29;27.90;99.90
49465;DHT22;35358;49.342;8.802;2022-09-02T16:23:59;27.90;99.90
49465;DHT22;35358;49.342;8.802;2022-09-02T16:28:53;28.00;99.90
49465;DHT22;35358;49.342;8.802;2022-09-02T16:31:21;27.60;99.90
49465;DHT22;35358;49.342;8.802;2022-09-02T16:33:56;27.70;99.90
49465;DHT22;35358;49.342;8.802;2022-09-02T16:36:26;27.40;99.90
49465;DHT22;35358;49.342;8.802;2022-09-02T16:38:57;27.50;99.90
49465;DHT22;35358;49.342;8.802;2022-09-02T16:44:00;26.70;99.90
49465;DHT22;35358;49.342;8.802;2022-09-02T16:46:27;26.30;99.90
49465;DHT22;35358;49.342;8.802;2022-09-02T16:48:53;26.40;99.90
49465;DHT22;35358;49.342;8.802;2022-09-02T16:51:20;26.10;99.90
49465;DHT22;35358;49.342;8.802;2022-09-02T16:53:47;25.70;99.90
49465;DHT22;35358;49.342;8.802;2022-09-02T16:56:16;25.20;99.90
49465;DHT22;35358;49.342;8.802;2022-09-02T16:58:44;24.80;99.90
49465;DHT22;35358;49.342;8.802;2022-09-02T17:01:10;24.50;99.90
49465;DHT22;35358;49.342;8.802;2022-09-02T17:03:41;24.40;99.90
49465;DHT22;35358;49.342;8.802;2022-09-02T17:06:07;24.30;99.90
49465;DHT22;35358;49.342;8.802;2022-09-02T17:08:35;24.00;99.90
49465;DHT22;35358;49.342;8.802;2022-09-02T17:13:50;23.80;99.90
49465;DHT22;35358;49.342;8.802;2022-09-02T17:16:17;23.70;99.90
49465;DHT22;35358;49.342;8.802;2022-09-02T17:18:48;23.60;99.90
49465;DHT22;35358;49.342;8.802;2022-09-02T17:21:29;23.50;99.90
49465;DHT22;35358;49.342;8.802;2022-09-02T17:23:56;23.40;99.90
49465;DHT22;35358;49.342;8.802;2022-09-02T17:26:24;23.30;99.90
49465;DHT22;35358;49.342;8.802;2022-09-02T17:28:51;23.30;99.90
49465;DHT22;35358;49.342;8.802;2022-09-02T17:31:31;23.50;99.90
49465;DHT22;35358;49.342;8.802;2022-09-02T17:34:01;23.50;99.90
49465;DHT22;35358;49.342;8.802;2022-09-02T17:36:29;23.30;99.90
49465;DHT22;35358;49.342;8.802;2022-09-02T17:38:59;23.70;99.90
49465;DHT22;35358;49.342;8.802;2022-09-02T17:41:25;24.20;99.90
49465;DHT22;35358;49.342;8.802;2022-09-02T17:44:11;23.90;99.90
49465;DHT22;35358;49.342;8.802;2022-09-02T17:46:39;23.40;99.90
49465;DHT22;35358;49.342;8.802;2022-09-02T17:49:05;23.00;99.90
49465;DHT22;35358;49.342;8.802;2022-09-02T17:51:36;22.80;99.90
49465;DHT22;35358;49.342;8.802;2022-09-02T17:54:02;22.50;99.90
49465;DHT22;35358;49.342;8.802;2022-09-02T17:59:32;22.30;99.90
49465;DHT22;35358;49.342;8.802;2022-09-02T18:10:34;21.90;99.90
49465;DHT22;35358;49.342;8.802;2022-09-02T18:13:10;21.80;99.90
49465;DHT22;35358;49.342;8.802;2022-09-02T18:18:20;21.60;99.90
49465;DHT22;35358;49.342;8.802;2022-09-02T18:20:54;21.60;99.90
49465;DHT22;35358;49.342;8.802;2022-09-02T18:23:38;21.50;99.90
49465;DHT22;35358;49.342;8.802;2022-09-02T18:34:17;21.20;99.90
49465;DHT22;35358;49.342;8.802;2022-09-02T18:39:31;21.10;99.90
49465;DHT22;35358;49.342;8.802;2022-09-02T18:44:55;21.00;99.90
49465;DHT22;35358;49.342;8.802;2022-09-02T18:47:26;20.90;99.90
49465;DHT22;35358;49.342;8.802;2022-09-02T18:49:54;20.90;99.90
49465;DHT22;35358;49.342;8.802;2022-09-02T18:52:24;20.90;99.90
49465;DHT22;35358;49.342;8.802;2022-09-02T18:57:27;20.80;99.90
49465;DHT22;35358;49.342;8.802;2022-09-02T19:00:07;20.80;99.90
49465;DHT22;35358;49.342;8.802;2022-09-02T19:02:59;20.70;99.90
49465;DHT22;35358;49.342;8.802;2022-09-02T19:05:33;20.60;99.90
49465;DHT22;35358;49.342;8.802;2022-09-02T19:08:07;20.50;99.90
49465;DHT22;35358;49.342;8.802;2022-09-02T19:11:00;20.50;99.90
49465;DHT22;35358;49.342;8.802;2022-09-02T19:13:41;20.50;99.90